Time;durP1;ratioP1;P1;durP2;ratioP2;P2;SDS_P1;SDS_P2;PMS_P1;PMS_P2;Temp;Humidity;BMP_temperature;BMP_pressure;BME280_temperature;BME280_humidity;BME280_pressure;Samples;Min_cycle;Max_cycle;Signal;HPM_P1;HPM_P2
2023/08/21 00:00:07;;;;;;;5.70;2.90;;;;;;;16.73;72.86;99364.88;4939058;28;20062;-70
2023/08/21 00:02:33;;;;;;;2.70;2.45;;;;;;;16.70;72.97;99366.88;4927184;28;20556;-71
2023/08/21 00:04:59;;;;;;;5.07;3.00;;;;;;;16.67;73.30;99361.81;4920107;28;20050;-67
2023/08/21 00:07:26;;;;;;;3.30;3.00;;;;;;;16.68;73.04;99362.66;4919720;28;20046;-71
2023/08/21 00:09:51;;;;;;;3.35;2.80;;;;;;;16.68;73.15;99368.03;4924163;28;20073;-70
2023/08/21 00:12:21;;;;;;;4.22;2.83;;;;;;;16.68;73.65;99366.19;4940062;28;20405;-70
2023/08/21 00:15:40;;;;;;;3.50;3.20;;;;;;;16.79;73.55;99359.72;4940270;28;20050;-69
2023/08/21 00:18:06;;;;;;;3.70;3.33;;;;;;;16.69;73.47;99364.34;4956209;28;20046;-69
2023/08/21 00:20:33;;;;;;;4.25;2.92;;;;;;;16.69;73.76;99358.97;4956019;28;20042;-69
2023/08/21 00:23:00;;;;;;;5.13;3.42;;;;;;;16.69;73.45;99377.81;4923541;28;20509;-68
2023/08/21 00:25:28;;;;;;;3.88;3.50;;;;;;;16.70;73.25;99368.75;4946001;28;20626;-69
2023/08/21 00:28:22;;;;;;;5.53;4.20;;;;;;;16.69;73.21;99370.59;4955918;28;20061;-69
2023/08/21 00:31:01;;;;;;;5.10;4.10;;;;;;;16.56;72.95;99369.25;4952056;28;20046;-68
2023/08/21 00:33:26;;;;;;;5.30;4.13;;;;;;;16.42;72.75;99367.09;4926971;28;20050;-71
2023/08/21 00:35:51;;;;;;;5.53;4.47;;;;;;;16.27;72.90;99370.28;4939196;28;20054;-69
2023/08/21 00:38:18;;;;;;;6.25;4.60;;;;;;;16.21;73.21;99375.44;4943775;28;20057;-71
2023/08/21 00:40:47;;;;;;;6.32;5.05;;;;;;;16.12;73.25;99387.13;4925563;28;20428;-71
2023/08/21 00:43:37;;;;;;;6.65;5.40;;;;;;;16.15;73.74;99378.72;4958596;28;20416;-69
2023/08/21 00:46:03;;;;;;;6.80;5.53;;;;;;;16.02;73.60;99376.44;4940164;28;20405;-70
2023/08/21 00:48:35;;;;;;;9.02;5.60;;;;;;;16.02;73.78;99375.59;4938857;28;20065;-70
2023/08/21 00:51:04;;;;;;;7.78;6.93;;;;;;;15.93;74.26;99375.47;4938938;28;20046;-69
2023/08/21 00:53:34;;;;;;;7.28;5.57;;;;;;;15.90;74.62;99367.72;4940453;28;20061;-70
2023/08/21 00:56:03;;;;;;;11.43;6.68;;;;;;;15.85;74.76;99374.53;4939457;28;20409;-70
2023/08/21 00:58:28;;;;;;;8.70;6.60;;;;;;;15.78;74.75;99376.13;4918862;28;20062;-70
2023/08/21 01:00:57;;;;;;;8.25;6.53;;;;;;;15.70;74.85;99370.63;4948945;28;20049;-71
2023/08/21 01:03:30;;;;;;;8.95;6.75;;;;;;;15.65;75.19;99379.16;4938220;28;20409;-71
2023/08/21 01:05:59;;;;;;;7.43;6.55;;;;;;;15.55;75.15;99373.84;4918028;28;20053;-72
2023/08/21 01:08:25;;;;;;;12.15;6.45;;;;;;;15.55;75.15;99389.09;4926332;28;20556;-71
2023/08/21 01:10:58;;;;;;;7.75;6.50;;;;;;;15.51;75.22;99376.91;4932949;28;20422;-70
2023/08/21 01:13:57;;;;;;;7.38;5.88;;;;;;;15.53;75.29;99375.78;4937893;28;20058;-70
2023/08/21 01:16:26;;;;;;;10.90;7.32;;;;;;;15.43;75.23;99391.09;4928910;28;20065;-69
2023/08/21 01:18:53;;;;;;;7.93;6.25;;;;;;;15.39;75.12;99381.63;4921605;28;20046;-70
2023/08/21 01:21:19;;;;;;;9.65;7.13;;;;;;;15.31;75.70;99397.63;4922123;28;20505;-70
2023/08/21 01:23:44;;;;;;;9.10;6.85;;;;;;;15.22;75.99;99385.09;4904902;28;20050;-69
2023/08/21 01:26:09;;;;;;;9.85;6.55;;;;;;;15.20;76.22;99387.91;4937656;28;20041;-70
2023/08/21 01:28:35;;;;;;;9.07;7.55;;;;;;;15.14;76.49;99412.63;4955095;28;20053;-70
2023/08/21 01:31:13;;;;;;;8.52;6.43;;;;;;;15.16;76.32;99386.50;4955431;28;20039;-69
2023/08/21 01:33:47;;;;;;;8.90;6.60;;;;;;;15.08;76.63;99401.63;4955730;28;20054;-70
2023/08/21 01:39:12;;;;;;;10.90;7.13;;;;;;;14.98;77.15;99379.34;4944233;28;20049;-69
2023/08/21 01:42:03;;;;;;;9.93;7.30;;;;;;;14.94;77.38;99410.13;4959052;28;20109;-69
2023/08/21 01:44:29;;;;;;;8.65;6.95;;;;;;;14.95;77.67;99388.50;4940919;28;20065;-69
2023/08/21 01:46:56;;;;;;;10.70;7.20;;;;;;;14.97;77.56;99405.34;4941555;28;20034;-70
2023/08/21 01:49:25;;;;;;;8.73;6.70;;;;;;;14.98;77.85;99384.69;4942296;28;20054;-69
2023/08/21 01:51:51;;;;;;;9.45;7.00;;;;;;;15.00;77.72;99382.72;4941854;28;20042;-70
2023/08/21 01:54:17;;;;;;;9.90;7.80;;;;;;;15.02;77.85;99383.41;4958916;28;20053;-69
2023/08/21 01:56:45;;;;;;;9.75;6.80;;;;;;;14.99;78.28;99381.03;4945923;28;20030;-69
2023/08/21 01:59:10;;;;;;;9.50;7.55;;;;;;;14.98;78.47;99385.56;4929302;28;20058;-69
2023/08/21 02:01:35;;;;;;;9.77;7.15;;;;;;;15.01;78.29;99339.59;4921617;28;20039;-69
2023/08/21 02:04:03;;;;;;;9.93;6.93;;;;;;;15.03;78.44;99398.53;4934074;28;20065;-71
2023/08/21 02:06:28;;;;;;;9.27;6.72;;;;;;;15.02;78.53;99402.19;4938463;28;20031;-70
2023/08/21 02:08:54;;;;;;;11.48;6.47;;;;;;;15.00;78.53;99388.09;4941254;28;20528;-70
2023/08/21 02:11:21;;;;;;;8.57;6.50;;;;;;;14.96;78.96;99371.41;4941172;28;20405;-70
2023/08/21 02:14:21;;;;;;;9.38;7.10;;;;;;;15.01;79.41;99389.78;4917387;28;20051;-74
2023/08/21 02:19:40;;;;;;;9.93;7.03;;;;;;;14.96;79.37;99370.56;4939430;28;20395;-71
2023/08/21 02:22:31;;;;;;;10.43;6.15;;;;;;;14.99;79.71;99386.41;4939689;28;20053;-69
2023/08/21 02:24:58;;;;;;;8.85;6.57;;;;;;;14.85;80.51;99406.47;4917337;28;20058;-71
2023/08/21 02:27:23;;;;;;;8.85;6.97;;;;;;;14.83;79.93;99457.59;4931247;28;20039;-71
2023/08/21 02:29:48;;;;;;;11.25;6.75;;;;;;;14.84;79.37;99399.41;4903762;28;20062;-71
2023/08/21 02:32:13;;;;;;;9.32;6.72;;;;;;;14.83;79.62;99395.88;4921735;28;20062;-70
2023/08/21 02:34:41;;;;;;;13.15;6.93;;;;;;;14.84;79.79;99402.09;4921656;28;20054;-73
2023/08/21 02:37:32;;;;;;;9.98;6.30;;;;;;;14.89;80.38;99398.00;4919019;29;20043;-74
2023/08/21 02:40:02;;;;;;;9.90;6.40;;;;;;;14.84;80.24;99394.88;4920103;28;20567;-73
2023/08/21 02:42:30;;;;;;;9.25;6.35;;;;;;;14.88;79.86;99385.56;4919925;29;20046;-73
2023/08/21 02:44:56;;;;;;;10.98;6.32;;;;;;;14.90;79.60;99382.72;4902689;29;20391;-73
2023/08/21 02:47:24;;;;;;;9.38;6.82;;;;;;;14.94;79.12;99377.91;4902603;29;20051;-71
2023/08/21 02:50:13;;;;;;;8.93;6.18;;;;;;;15.00;79.13;99382.72;4902587;29;20395;-72
2023/08/21 02:52:39;;;;;;;12.18;6.38;;;;;;;14.99;78.95;99407.88;4902517;29;20054;-71
2023/08/21 02:55:05;;;;;;;9.32;5.38;;;;;;;15.05;78.67;99391.19;4919640;29;20417;-71
2023/08/21 02:57:32;;;;;;;9.75;5.80;;;;;;;15.13;78.50;99393.97;4901960;29;20062;-72
2023/08/21 03:00:00;;;;;;;9.88;5.45;;;;;;;15.22;78.50;99398.50;4919506;29;20047;-71
2023/08/21 03:05:18;;;;;;;7.45;5.40;;;;;;;15.43;77.54;99428.69;4938412;28;20497;-72
2023/08/21 03:07:43;;;;;;;8.10;4.68;;;;;;;15.52;76.92;99402.78;4921027;28;20042;-73
2023/08/21 03:10:10;;;;;;;12.13;4.63;;;;;;;15.56;76.52;99429.25;4940990;28;20050;-72
2023/08/21 03:12:35;;;;;;;5.97;4.47;;;;;;;15.66;76.10;99401.50;4921903;28;20540;-74
2023/08/21 03:15:01;;;;;;;8.13;5.07;;;;;;;15.75;75.45;99417.59;4940713;28;20045;-71
2023/08/21 03:17:51;;;;;;;7.95;4.60;;;;;;;15.91;75.21;99407.03;4940338;28;20175;-72
2023/08/21 03:20:20;;;;;;;6.15;4.45;;;;;;;15.97;75.12;99410.97;4921133;28;20042;-71
2023/08/21 03:23:10;;;;;;;6.50;4.20;;;;;;;16.13;74.72;99407.66;4921105;28;20050;-71
2023/08/21 03:25:41;;;;;;;5.97;4.30;;;;;;;16.12;74.42;99404.09;4904877;28;20047;-71
2023/08/21 03:28:07;;;;;;;7.00;4.25;;;;;;;16.21;73.88;99403.19;4936040;28;20217;-71
2023/08/21 03:30:34;;;;;;;6.80;4.10;;;;;;;16.29;73.40;99427.50;4920842;28;20413;-72
2023/08/21 03:32:59;;;;;;;5.22;3.55;;;;;;;16.36;72.81;99422.38;4938071;28;20070;-71
2023/08/21 03:35:24;;;;;;;4.63;3.70;;;;;;;16.45;72.52;99405.31;4903198;28;20535;-72
2023/08/21 03:37:51;;;;;;;5.53;3.92;;;;;;;16.60;72.14;99411.81;4940720;28;20046;-72
2023/08/21 03:40:19;;;;;;;7.03;5.10;;;;;;;16.77;71.50;99404.78;4924200;28;20536;-74
2023/08/21 03:42:47;;;;;;;5.85;3.90;;;;;;;16.95;70.86;99405.63;4940168;28;20046;-73
2023/08/21 03:45:12;;;;;;;5.80;4.22;;;;;;;17.12;70.25;99409.28;4957346;28;20046;-74
2023/08/21 03:48:03;;;;;;;5.40;4.05;;;;;;;17.32;69.22;99413.47;4923899;28;20042;-73
2023/08/21 03:50:32;;;;;;;5.57;3.95;;;;;;;17.27;68.67;99410.41;4956998;28;20420;-71
2023/08/21 03:52:59;;;;;;;4.32;3.28;;;;;;;17.34;68.23;99411.47;4956989;28;20042;-71
2023/08/21 03:55:26;;;;;;;7.93;5.30;;;;;;;17.46;68.13;99417.44;4956656;28;20053;-71
2023/08/21 03:57:54;;;;;;;9.20;6.60;;;;;;;17.50;67.68;99420.66;4939622;28;20050;-71
2023/08/21 04:03:11;;;;;;;4.20;3.47;;;;;;;17.59;67.49;99417.03;4938935;28;20050;-72
2023/08/21 04:05:37;;;;;;;4.35;3.40;;;;;;;17.71;66.88;99416.63;4923358;28;20038;-71
2023/08/21 04:08:02;;;;;;;6.30;4.03;;;;;;;17.81;66.46;99437.22;4956420;28;20049;-72
2023/08/21 04:10:28;;;;;;;5.22;3.47;;;;;;;17.85;65.84;99422.41;4956829;28;20050;-71
2023/08/21 04:15:49;;;;;;;4.55;3.47;;;;;;;18.01;64.96;99411.69;4937284;28;20493;-72
2023/08/21 04:18:16;;;;;;;6.10;3.95;;;;;;;18.14;65.33;99425.56;4920108;28;20043;-71
2023/08/21 04:20:41;;;;;;;4.72;3.45;;;;;;;18.31;64.84;99430.00;4936014;28;20482;-72
2023/08/21 04:23:07;;;;;;;8.65;3.78;;;;;;;18.55;64.43;99420.28;4919931;28;20433;-71
2023/08/21 04:25:35;;;;;;;6.88;3.40;;;;;;;18.74;62.98;99417.28;4937032;28;20042;-73
2023/08/21 04:28:04;;;;;;;4.13;3.30;;;;;;;18.88;61.72;99432.84;4936864;28;20050;-73
2023/08/21 04:30:33;;;;;;;5.55;3.13;;;;;;;18.92;60.87;99428.81;4936062;28;20517;-73
2023/08/21 04:33:00;;;;;;;3.35;3.05;;;;;;;18.96;60.71;99408.53;4919108;28;20157;-75
2023/08/21 04:35:28;;;;;;;4.32;3.20;;;;;;;19.03;60.26;99409.56;4919625;28;20042;-73
2023/08/21 04:37:55;;;;;;;3.33;3.00;;;;;;;19.08;59.94;99380.16;4903513;28;20046;-70
2023/08/21 04:40:24;;;;;;;4.10;3.22;;;;;;;19.26;59.40;99425.94;4919738;28;20043;-70
2023/08/21 04:42:51;;;;;;;4.95;3.25;;;;;;;19.41;58.83;99407.16;4919607;28;20421;-71
2023/08/21 04:48:11;;;;;;;7.35;3.00;;;;;;;19.64;58.27;99408.13;4936902;28;20039;-72
2023/08/21 04:50:37;;;;;;;7.70;3.58;;;;;;;19.72;57.77;99421.66;4919835;28;20057;-74
2023/08/21 04:53:04;;;;;;;4.00;2.97;;;;;;;19.71;57.10;99414.56;4935778;28;20073;-74
2023/08/21 04:55:32;;;;;;;4.95;3.50;;;;;;;19.64;56.99;99401.91;4919944;28;20053;-72
2023/08/21 04:57:59;;;;;;;3.60;3.30;;;;;;;19.70;57.56;99429.09;4935429;28;20038;-73
2023/08/21 05:00:25;;;;;;;4.60;3.03;;;;;;;19.77;57.31;99413.00;4935607;28;20446;-72
2023/08/21 05:02:52;;;;;;;5.72;3.75;;;;;;;19.88;56.88;99409.94;4935145;28;20043;-72
2023/08/21 05:05:22;;;;;;;3.33;3.00;;;;;;;20.05;56.56;99400.75;4919101;28;20166;-72
2023/08/21 05:07:53;;;;;;;5.13;3.78;;;;;;;20.26;56.11;99413.66;4902709;28;20417;-72
2023/08/21 05:10:21;;;;;;;4.32;3.03;;;;;;;20.68;55.51;99415.97;4903199;28;20058;-73
2023/08/21 05:13:17;;;;;;;4.75;3.33;;;;;;;21.07;54.65;99418.56;4942654;28;20054;-73
2023/08/21 05:15:43;;;;;;;5.07;3.78;;;;;;;21.24;53.87;99413.88;4939949;28;20061;-72
2023/08/21 05:21:00;;;;;;;4.72;3.53;;;;;;;22.08;53.00;99405.34;4907061;28;20147;-74
2023/08/21 05:23:33;;;;;;;7.93;3.50;;;;;;;22.27;52.66;99405.78;4924040;28;20058;-72
2023/08/21 05:26:07;;;;;;;5.47;3.33;;;;;;;22.48;52.37;99413.13;4907600;28;20054;-73
2023/08/21 05:29:01;;;;;;;3.58;3.25;;;;;;;22.61;51.36;99410.56;4938265;28;20051;-72
2023/08/21 05:31:28;;;;;;;9.35;3.60;;;;;;;22.77;49.74;99416.66;4907110;28;20131;-71
2023/08/21 05:33:58;;;;;;;4.53;3.40;;;;;;;22.54;50.26;99407.78;4917649;28;20057;-73
2023/08/21 05:36:23;;;;;;;5.68;2.85;;;;;;;22.87;49.67;99439.94;4941641;28;20049;-72
2023/08/21 05:38:52;;;;;;;3.53;3.05;;;;;;;23.45;48.62;99415.16;4925068;28;20054;-72
2023/08/21 05:41:18;;;;;;;5.05;2.90;;;;;;;23.72;47.29;99401.75;4941967;28;20050;-70
2023/08/21 05:43:48;;;;;;;3.80;2.83;;;;;;;23.71;46.86;99427.28;4925116;28;20053;-69
2023/08/21 05:46:20;;;;;;;4.88;3.15;;;;;;;23.73;45.76;99408.88;4925590;28;20057;-70
2023/08/21 05:49:11;;;;;;;7.88;3.22;;;;;;;24.27;44.62;99397.28;4941120;28;20053;-70
2023/08/21 05:51:36;;;;;;;3.75;2.70;;;;;;;24.69;43.32;99407.88;4941752;28;20050;-70
2023/08/21 05:54:05;;;;;;;3.33;2.90;;;;;;;25.20;42.47;99408.19;4959135;28;20042;-70
2023/08/21 05:56:36;;;;;;;7.28;2.92;;;;;;;25.40;41.61;99401.88;4941831;28;20053;-70
2023/08/21 05:59:01;;;;;;;5.82;2.90;;;;;;;25.63;40.85;99400.41;4959109;28;20034;-70
2023/08/21 06:01:27;;;;;;;4.25;3.05;;;;;;;26.11;40.39;99383.69;4909875;28;20057;-70
2023/08/21 06:03:53;;;;;;;6.78;3.42;;;;;;;26.02;40.30;99395.91;4924786;28;20046;-72
2023/08/21 06:06:47;;;;;;;5.57;3.13;;;;;;;26.32;39.59;99386.16;4954882;28;20421;-71
2023/08/21 06:09:16;;;;;;;4.97;3.13;;;;;;;26.96;38.64;99415.28;4940702;28;20058;-73
2023/08/21 06:11:41;;;;;;;11.00;3.65;;;;;;;27.48;38.06;99385.81;4941662;28;20050;-71
2023/08/21 06:14:08;;;;;;;7.05;3.10;;;;;;;28.29;37.04;99388.34;4941379;28;20412;-72
2023/08/21 06:16:33;;;;;;;5.75;3.28;;;;;;;29.35;35.70;99409.56;4941928;28;20050;-73
2023/08/21 06:19:00;;;;;;;4.43;3.35;;;;;;;29.32;33.91;99398.25;4941543;28;20038;-74
2023/08/21 06:21:27;;;;;;;4.03;3.28;;;;;;;29.14;33.96;99401.91;4923456;28;20065;-75
2023/08/21 06:23:53;;;;;;;3.45;3.15;;;;;;;29.04;33.59;99387.91;4942214;28;20038;-76
2023/08/21 06:26:19;;;;;;;6.45;3.50;;;;;;;28.80;34.46;99378.78;4944039;28;20042;-75
2023/08/21 06:28:45;;;;;;;4.00;2.92;;;;;;;28.81;33.31;99362.09;4943114;28;20034;-77
2023/08/21 06:31:38;;;;;;;5.78;3.00;;;;;;;29.23;33.82;99386.78;4931424;28;20069;-76
2023/08/21 06:34:03;;;;;;;6.57;4.90;;;;;;;29.48;32.73;99381.09;4921904;28;20293;-76
2023/08/21 06:36:29;;;;;;;5.85;3.38;;;;;;;30.15;31.80;99373.28;4934482;28;20051;-75
2023/08/21 06:38:55;;;;;;;6.93;3.13;;;;;;;30.40;30.98;99376.56;4927682;28;20039;-75
2023/08/21 06:41:20;;;;;;;5.15;3.22;;;;;;;30.64;30.85;99375.41;4908354;28;20397;-74
2023/08/21 06:46:37;;;;;;;5.30;3.45;;;;;;;32.00;29.19;99395.31;4940940;28;20054;-76
2023/08/21 06:49:03;;;;;;;13.25;8.63;;;;;;;32.68;28.81;99382.94;4940702;28;20516;-77
2023/08/21 06:51:32;;;;;;;4.00;3.63;;;;;;;33.26;27.41;99375.81;4958142;28;20477;-76
2023/08/21 06:53:59;;;;;;;5.43;3.80;;;;;;;33.54;27.03;99372.69;4958560;28;20045;-75
2023/08/21 06:56:25;;;;;;;4.07;3.55;;;;;;;34.47;26.27;99369.38;4941903;28;20046;-77
2023/08/21 06:58:50;;;;;;;5.78;4.03;;;;;;;35.11;25.15;99369.78;4938250;28;20047;-74
2023/08/21 07:01:15;;;;;;;4.40;3.25;;;;;;;34.73;24.46;99384.13;4921791;28;20430;-77
2023/08/21 07:03:44;;;;;;;3.97;3.40;;;;;;;34.19;25.18;99388.06;4938638;28;20497;-76
2023/08/21 07:06:09;;;;;;;4.97;3.47;;;;;;;34.29;24.81;99380.94;4921079;28;20061;-77
2023/08/21 07:08:34;;;;;;;5.10;3.75;;;;;;;34.75;25.30;99321.84;4939412;28;20042;-76
2023/08/21 07:11:10;;;;;;;5.50;3.92;;;;;;;35.20;24.53;99336.81;4921714;28;20058;-75
2023/08/21 07:13:45;;;;;;;5.35;4.22;;;;;;;35.65;23.98;99342.34;4872894;29;20052;-77
2023/08/21 07:16:16;;;;;;;4.38;3.97;;;;;;;34.52;23.72;99341.72;4879496;29;20085;-76
2023/08/21 07:18:42;;;;;;;5.57;3.97;;;;;;;34.30;24.26;99341.91;4879153;29;20074;-76
2023/08/21 07:21:10;;;;;;;3.95;3.35;;;;;;;34.22;24.25;99334.94;4864592;29;20039;-77
2023/08/21 07:23:36;;;;;;;4.93;3.63;;;;;;;33.80;24.57;99395.03;4864456;29;20071;-77
2023/08/21 07:26:04;;;;;;;7.35;3.55;;;;;;;32.80;25.70;99389.19;4882563;29;20047;-79
2023/08/21 07:28:29;;;;;;;4.28;3.50;;;;;;;30.92;27.12;99404.00;4898200;29;20055;-76
2023/08/21 07:33:52;;;;;;;4.78;3.17;;;;;;;27.59;31.84;99387.81;4865233;29;20427;-79
2023/08/21 07:36:44;;;;;;;4.53;3.35;;;;;;;26.38;33.49;99401.69;4881088;29;20040;-77
2023/08/21 07:39:09;;;;;;;10.73;3.80;;;;;;;25.07;35.38;99385.50;4884798;29;20063;-77
2023/08/21 07:41:35;;;;;;;5.63;3.42;;;;;;;24.43;36.76;99396.91;4883417;29;20059;-76
2023/08/21 07:44:01;;;;;;;7.20;3.20;;;;;;;23.83;37.61;99409.34;4902540;29;20058;-75
2023/08/21 07:46:29;;;;;;;12.65;9.85;;;;;;;23.27;38.95;99403.91;4917353;28;20046;-74
2023/08/21 07:48:54;;;;;;;5.60;3.78;;;;;;;23.48;38.90;99412.03;4938033;28;20043;-74
2023/08/21 07:51:22;;;;;;;6.25;3.80;;;;;;;24.72;37.82;99409.38;4937904;28;20054;-74
2023/08/21 07:56:42;;;;;;;7.00;3.20;;;;;;;30.63;30.19;99378.41;4941267;28;20049;-74
2023/08/21 07:59:07;;;;;;;4.70;3.20;;;;;;;32.48;27.56;99385.47;4907375;28;20050;-74
2023/08/21 08:04:26;;;;;;;3.28;3.00;;;;;;;32.64;26.82;99375.44;4923826;28;20053;-75
2023/08/21 08:06:52;;;;;;;5.15;3.60;;;;;;;32.20;26.78;99388.44;4940864;28;20053;-74
2023/08/21 08:09:19;;;;;;;7.28;3.15;;;;;;;31.20;28.20;99373.69;4923108;28;20054;-76
2023/08/21 08:12:35;;;;;;;4.07;3.55;;;;;;;30.12;29.34;99354.53;4939473;28;20061;-75
2023/08/21 08:15:02;;;;;;;3.95;3.05;;;;;;;29.05;30.63;99384.94;4920770;28;20050;-74
2023/08/21 08:17:30;;;;;;;5.00;3.47;;;;;;;28.16;31.84;99372.84;4901850;29;20513;-75
2023/08/21 08:19:55;;;;;;;6.45;3.63;;;;;;;27.33;32.74;99377.91;4870694;29;20054;-73
2023/08/21 08:22:23;;;;;;;5.50;3.47;;;;;;;27.19;32.67;99378.28;4901900;29;20058;-73
2023/08/21 08:24:50;;;;;;;4.47;3.63;;;;;;;28.61;31.53;99374.41;4902670;29;20061;-72
2023/08/21 08:27:41;;;;;;;3.63;3.15;;;;;;;31.23;27.35;99359.41;4919016;29;20043;-74
2023/08/21 08:30:35;;;;;;;3.70;3.22;;;;;;;33.95;25.27;99367.47;4917656;29;20062;-73
2023/08/21 08:33:04;;;;;;;5.10;3.45;;;;;;;36.02;23.15;99313.38;4930519;28;20050;-74
2023/08/21 08:35:58;;;;;;;4.18;3.75;;;;;;;38.49;20.94;99315.06;4938650;28;20061;-75
2023/08/21 08:38:28;;;;;;;7.75;4.00;;;;;;;40.32;19.94;99350.97;4938173;28;20054;-74
2023/08/21 08:40:55;;;;;;;5.15;4.65;;;;;;;41.33;18.42;99351.41;4921783;28;20039;-73
2023/08/21 08:43:25;;;;;;;5.55;4.60;;;;;;;40.54;18.03;99345.44;4941252;28;20050;-78
2023/08/21 08:45:54;;;;;;;7.00;4.70;;;;;;;38.75;19.97;99353.75;4941508;28;20042;-76
2023/08/21 08:48:22;;;;;;;4.65;4.15;;;;;;;37.95;20.45;99348.91;4924842;28;20394;-77
2023/08/21 08:51:12;;;;;;;4.43;4.03;;;;;;;36.95;22.33;99343.97;4904122;29;20066;-74
2023/08/21 08:53:39;;;;;;;12.20;4.28;;;;;;;35.33;22.76;99332.69;4903463;29;20051;-77
2023/08/21 08:56:08;;;;;;;5.15;4.25;;;;;;;36.17;22.78;99288.31;4920945;29;20043;-77
2023/08/21 08:58:34;;;;;;;5.05;4.65;;;;;;;37.62;21.44;99283.06;4888595;29;20050;-77
2023/08/21 09:01:26;;;;;;;6.00;4.35;;;;;;;40.00;19.61;99292.44;4919756;29;20579;-77
2023/08/21 09:03:51;;;;;;;5.82;5.25;;;;;;;40.78;18.43;99286.50;4886663;29;20066;-76
2023/08/21 09:06:42;;;;;;;9.15;4.47;;;;;;;42.71;17.94;99293.09;4902099;29;20045;-77
2023/08/21 09:09:12;;;;;;;5.70;5.13;;;;;;;43.36;16.50;99310.84;4932203;28;20061;-76
2023/08/21 09:11:43;;;;;;;7.38;6.05;;;;;;;43.86;15.82;99325.09;4921203;28;20131;-75
2023/08/21 09:14:10;;;;;;;6.30;5.70;;;;;;;43.75;15.20;99321.00;4948891;28;20054;-77
2023/08/21 09:16:35;;;;;;;5.90;5.40;;;;;;;44.20;15.44;99340.97;4939634;28;20153;-74
2023/08/21 09:19:04;;;;;;;6.50;5.97;;;;;;;44.97;15.14;99302.22;4956983;28;20046;-74
2023/08/21 09:21:31;;;;;;;6.78;6.10;;;;;;;45.83;14.17;99310.53;4958155;28;20055;-75
2023/08/21 09:24:03;;;;;;;8.65;7.82;;;;;;;45.55;13.98;99318.03;4940030;28;20045;-76
2023/08/21 09:26:32;;;;;;;7.83;6.67;;;;;;;45.20;14.13;99312.75;4940008;28;20049;-74
2023/08/21 09:29:04;;;;;;;6.77;6.23;;;;;;;44.23;14.51;99317.00;4937322;28;20309;-75
2023/08/21 09:31:32;;;;;;;6.72;6.03;;;;;;;42.54;15.34;99306.28;4938471;28;20066;-74
2023/08/21 09:34:24;;;;;;;6.70;5.90;;;;;;;41.33;16.76;99305.78;4937042;28;20062;-76
2023/08/21 09:36:56;;;;;;;6.53;5.72;;;;;;;40.71;17.54;99302.06;4920888;28;20046;-76
2023/08/21 09:39:22;;;;;;;6.07;5.50;;;;;;;40.10;17.22;99303.38;4943859;28;20042;-70
2023/08/21 09:41:57;;;;;;;5.63;5.22;;;;;;;39.91;17.52;99287.59;4907396;28;20057;-70
2023/08/21 09:44:48;;;;;;;10.27;4.88;;;;;;;40.41;17.75;99290.41;4934887;28;20441;-72
2023/08/21 09:47:13;;;;;;;6.28;4.65;;;;;;;39.61;17.10;99293.75;4938783;28;20042;-71
2023/08/21 09:49:42;;;;;;;4.85;4.35;;;;;;;39.25;17.19;99278.78;4954171;28;20593;-71
2023/08/21 09:52:11;;;;;;;4.93;4.05;;;;;;;38.34;17.89;99312.53;4919589;28;20054;-70
2023/08/21 09:54:56;;;;;;;4.78;4.35;;;;;;;37.93;18.39;99258.47;4951248;28;20053;-71
2023/08/21 09:57:24;;;;;;;4.65;4.25;;;;;;;37.15;19.45;99253.19;4942443;28;20058;-70
2023/08/21 09:59:56;;;;;;;6.72;5.30;;;;;;;36.71;20.25;99243.03;4935861;28;20046;-72
2023/08/21 10:02:27;;;;;;;4.80;4.32;;;;;;;36.14;21.13;99238.94;4941213;28;20409;-73
2023/08/21 10:04:59;;;;;;;6.07;4.68;;;;;;;35.77;21.37;99244.97;4920647;28;20077;-73
2023/08/21 10:07:27;;;;;;;5.78;4.05;;;;;;;35.40;22.04;99234.25;4945943;28;20054;-73
2023/08/21 10:09:53;;;;;;;4.82;4.38;;;;;;;35.31;21.79;99230.41;4938488;28;20045;-72
2023/08/21 10:15:13;;;;;;;7.18;3.80;;;;;;;33.52;23.11;99235.88;4942872;28;20058;-74
2023/08/21 10:18:30;;;;;;;10.68;4.57;;;;;;;33.21;23.66;99228.47;4943541;28;20069;-71
2023/08/21 10:21:25;;;;;;;7.18;3.92;;;;;;;32.35;24.74;99270.81;4942369;28;20049;-70
2023/08/21 10:23:55;;;;;;;4.65;4.00;;;;;;;30.96;26.61;99278.53;4940136;28;20047;-71
2023/08/21 10:26:22;;;;;;;3.90;3.55;;;;;;;29.93;27.21;99296.91;4924165;28;20061;-72
2023/08/21 10:29:01;;;;;;;5.45;3.50;;;;;;;29.17;29.19;99286.97;4925256;28;20042;-71
2023/08/21 10:32:05;;;;;;;5.70;3.72;;;;;;;28.37;29.26;99259.16;4955734;28;20062;-71
2023/08/21 10:34:58;;;;;;;5.30;4.10;;;;;;;27.33;30.35;99273.06;4944678;28;20050;-70
2023/08/21 10:37:24;;;;;;;5.18;3.60;;;;;;;26.83;31.73;99262.16;4941534;28;20038;-70
2023/08/21 10:40:22;;;;;;;6.25;3.65;;;;;;;26.68;31.95;99264.38;4924768;28;20540;-69
2023/08/21 10:46:08;;;;;;;7.30;3.50;;;;;;;25.64;33.25;99272.94;4934409;28;20422;-71
2023/08/21 10:48:59;;;;;;;4.60;4.10;;;;;;;25.46;33.22;99259.94;4921032;28;20054;-72
2023/08/21 10:51:33;;;;;;;9.77;3.50;;;;;;;24.99;33.90;99268.44;4956858;28;20452;-70
2023/08/21 10:54:10;;;;;;;7.25;3.00;;;;;;;24.69;34.49;99277.03;4941505;28;20045;-72
2023/08/21 10:59:27;;;;;;;6.57;3.50;;;;;;;24.06;35.30;99262.00;4927813;28;20512;-71
2023/08/21 11:01:52;;;;;;;4.10;3.40;;;;;;;23.96;36.25;99245.22;4957838;28;20123;-70
2023/08/21 11:04:19;;;;;;;5.90;3.90;;;;;;;24.02;36.05;99266.19;4957897;28;20054;-70
2023/08/21 11:06:44;;;;;;;6.38;3.50;;;;;;;23.91;36.01;99251.28;4940775;28;20049;-70
2023/08/21 11:09:13;;;;;;;7.32;3.58;;;;;;;23.70;36.40;99256.88;4958006;28;20707;-71
2023/08/21 11:11:43;;;;;;;4.80;3.25;;;;;;;23.51;36.05;99253.00;4941288;28;20068;-69
2023/08/21 11:14:58;;;;;;;4.43;3.20;;;;;;;23.20;36.29;99260.75;4960372;28;20053;-70
2023/08/21 11:17:27;;;;;;;10.95;6.63;;;;;;;22.93;36.41;99248.84;4926171;28;20065;-74
2023/08/21 11:20:21;;;;;;;4.10;3.10;;;;;;;22.67;36.52;99249.47;4943066;28;20053;-76
2023/08/21 11:25:40;;;;;;;4.60;3.28;;;;;;;22.28;36.84;99244.53;4961233;28;20053;-71
2023/08/21 11:28:05;;;;;;;5.65;3.30;;;;;;;22.14;37.35;99254.41;4939293;28;20046;-70
2023/08/21 11:30:35;;;;;;;5.80;3.28;;;;;;;22.07;38.10;99240.78;4957127;28;20053;-72
2023/08/21 11:33:11;;;;;;;4.50;2.88;;;;;;;22.14;39.19;99248.13;4935711;28;20055;-73
2023/08/21 11:35:40;;;;;;;6.05;3.13;;;;;;;22.07;39.55;99248.91;4953650;28;20038;-72
2023/08/21 11:38:34;;;;;;;5.65;3.40;;;;;;;22.15;40.37;99250.66;4937881;28;20076;-72
2023/08/21 11:41:09;;;;;;;6.38;3.58;;;;;;;22.11;39.83;99245.84;4938649;28;20043;-70
2023/08/21 11:43:37;;;;;;;4.45;3.03;;;;;;;22.09;39.74;99251.44;4939842;28;20042;-73
2023/08/21 11:46:32;;;;;;;7.82;3.72;;;;;;;22.08;39.18;99234.31;4938313;28;20046;-71
2023/08/21 11:49:02;;;;;;;10.35;3.63;;;;;;;22.08;39.36;99236.19;4938777;28;20770;-73
2023/08/21 11:51:28;;;;;;;5.03;3.13;;;;;;;22.08;38.89;99239.75;4956189;28;20053;-72
2023/08/21 11:53:55;;;;;;;5.50;3.33;;;;;;;22.08;39.45;99239.75;4934389;28;20050;-73
2023/08/21 11:56:21;;;;;;;6.47;3.80;;;;;;;22.07;39.54;99248.91;4956258;28;20050;-79
2023/08/21 11:58:50;;;;;;;6.28;3.80;;;;;;;22.06;39.79;99257.25;4939069;28;20046;-75
2023/08/21 12:01:19;;;;;;;5.88;3.63;;;;;;;22.01;39.27;99265.97;4939370;28;20057;-75
2023/08/21 12:03:54;;;;;;;6.18;3.53;;;;;;;21.97;39.75;99252.94;4938629;28;20062;-76
2023/08/21 12:06:25;;;;;;;4.00;3.30;;;;;;;21.94;40.51;99237.03;4957446;28;20053;-78
2023/08/21 12:08:55;;;;;;;6.70;3.95;;;;;;;21.91;40.96;99237.41;4939552;28;20050;-74
2023/08/21 12:11:47;;;;;;;6.43;3.17;;;;;;;21.88;41.27;99230.53;4920539;28;20065;-76
2023/08/21 12:14:12;;;;;;;4.32;3.42;;;;;;;21.84;41.35;99231.09;4903046;28;20055;-76
2023/08/21 12:16:37;;;;;;;8.32;3.33;;;;;;;21.79;41.63;99250.66;4933461;28;20561;-75
2023/08/21 12:19:03;;;;;;;5.90;3.40;;;;;;;21.80;42.02;99230.63;4924274;28;20046;-71
2023/08/21 12:21:29;;;;;;;4.97;3.30;;;;;;;21.81;42.35;99248.59;4921443;28;20046;-75
2023/08/21 12:23:54;;;;;;;5.85;3.38;;;;;;;21.81;42.71;99234.19;4903881;28;20051;-75
2023/08/21 12:26:21;;;;;;;4.90;3.42;;;;;;;21.79;42.72;99222.66;4919823;28;20411;-76
2023/08/21 12:28:47;;;;;;;8.48;3.30;;;;;;;21.73;43.06;99229.72;4918679;28;20050;-71
2023/08/21 12:31:13;;;;;;;5.45;3.63;;;;;;;21.68;43.24;99237.56;4912754;29;20055;-72
2023/08/21 12:33:39;;;;;;;7.55;3.80;;;;;;;21.65;43.80;99221.69;4931709;28;20426;-72